Time;durP1;ratioP1;P1;durP2;ratioP2;P2;SDS_P1;SDS_P2;PMS_P1;PMS_P2;Temp;Humidity;BMP_temperature;BMP_pressure;BME280_temperature;BME280_humidity;BME280_pressure;Samples;Min_cycle;Max_cycle;Signal;HPM_P1;HPM_P2
2021/09/30 00:01:37;;;;;;;;;;;;;;;;;;5106844;27;20296;-65
2021/09/30 00:04:04;;;;;;;;;;;;;;;;;;5104072;27;19934;-66
2021/09/30 00:06:31;;;;;;;;;;;;;;;;;;5101637;28;19924;-65
2021/09/30 00:08:58;;;;;;;;;;;;;;;;;;5103807;28;20023;-66
2021/09/30 00:11:27;;;;;;;;;;;;;;;;;;5106853;27;19928;-65
2021/09/30 00:13:58;;;;;;;;;;;;;;;;;;5104626;27;19932;-65
2021/09/30 00:16:58;;;;;;;;;;;;;;;;;;5104548;28;19928;-66
2021/09/30 00:33:25;;;;;;;;;;;;;;;;;;5108277;27;19958;-66
2021/09/30 00:35:59;;;;;;;;;;;;;;;;;;5112285;27;19924;-66
2021/09/30 00:46:41;;;;;;;;;;;;;;;;;;5108270;27;20049;-66
2021/09/30 00:49:15;;;;;;;;;;;;;;;;;;5113433;27;19924;-66
2021/09/30 00:51:49;;;;;;;;;;;;;;;;;;5103443;28;20344;-66
2021/09/30 01:46:41;;;;;;;;;;;;;;;;;;5111086;27;20426;-65
2021/09/30 02:20:05;;;;;;;;;;;;;;;;;;5074675;28;19920;-66
2021/09/30 02:22:45;;;;;;;;;;;;;;;;;;5098497;27;19924;-66
2021/09/30 02:39:28;;;;;;;;;;;;;;;;;;5109949;27;20042;-65
2021/09/30 02:58:34;;;;;;;;;;;;;;;;;;5096884;28;19919;-66
2021/09/30 03:01:01;;;;;;;;;;;;;;;;;;5105081;28;19924;-65
2021/09/30 03:03:28;;;;;;;;;;;;;;;;;;5098358;28;19935;-65
2021/09/30 03:05:55;;;;;;;;;;;;;;;;;;5098565;28;19946;-64
2021/09/30 03:08:22;;;;;;;;;;;;;;;;;;5097893;28;19928;-66
2021/09/30 03:10:51;;;;;;;;;;;;;;;;;;5107972;28;19924;-65
2021/09/30 03:13:18;;;;;;;;;;;;;;;;;;5108349;28;20436;-66
2021/09/30 03:15:51;;;;;;;;;;;;;;;;;;5105243;28;19925;-66
2021/09/30 03:18:30;;;;;;;;;;;;;;;;;;5102963;28;19923;-66
2021/09/30 03:23:47;;;;;;;;;;;;;;;;;;5056677;28;20462;-65
2021/09/30 03:26:13;;;;;;;;;;;;;;;;;;5110729;28;19931;-65
2021/09/30 03:28:40;;;;;;;;;;;;;;;;;;5107065;28;19928;-64
2021/09/30 03:31:07;;;;;;;;;;;;;;;;;;5101160;28;19924;-64
2021/09/30 03:33:34;;;;;;;;;;;;;;;;;;5098907;28;19931;-65
2021/09/30 03:36:02;;;;;;;;;;;;;;;;;;5116929;28;19930;-65
2021/09/30 03:38:29;;;;;;;;;;;;;;;;;;5108370;28;20330;-65
2021/09/30 03:40:56;;;;;;;;;;;;;;;;;;5106794;28;20327;-65
2021/09/30 03:43:23;;;;;;;;;;;;;;;;;;5109910;28;20303;-66
2021/09/30 03:45:50;;;;;;;;;;;;;;;;;;5111227;28;20311;-66
2021/09/30 03:48:18;;;;;;;;;;;;;;;;;;5108682;28;19997;-66
2021/09/30 03:50:50;;;;;;;;;;;;;;;;;;5107013;28;19968;-66
2021/09/30 03:53:21;;;;;;;;;;;;;;;;;;5097790;28;20512;-66
2021/09/30 04:01:17;;;;;;;;;;;;;;;;;;5101377;27;19935;-66
2021/09/30 04:03:44;;;;;;;;;;;;;;;;;;5098994;28;20000;-66
2021/09/30 04:06:12;;;;;;;;;;;;;;;;;;5096682;27;19938;-66
2021/09/30 04:08:39;;;;;;;;;;;;;;;;;;5102761;27;19923;-66
2021/09/30 04:11:06;;;;;;;;;;;;;;;;;;5098827;27;19930;-67
2021/09/30 04:13:33;;;;;;;;;;;;;;;;;;5101660;27;19931;-67
2021/09/30 04:16:00;;;;;;;;;;;;;;;;;;5099974;27;20395;-66
2021/09/30 04:18:27;;;;;;;;;;;;;;;;;;5105209;27;19963;-66
2021/09/30 04:20:54;;;;;;;;;;;;;;;;;;5102332;27;19923;-67
2021/09/30 04:23:21;;;;;;;;;;;;;;;;;;5103275;27;19935;-67
2021/09/30 04:25:48;;;;;;;;;;;;;;;;;;5105455;27;19930;-67
2021/09/30 04:28:15;;;;;;;;;;;;;;;;;;5107375;27;19923;-66
2021/09/30 04:30:42;;;;;;;;;;;;;;;;;;5097864;27;19931;-66
2021/09/30 04:33:09;;;;;;;;;;;;;;;;;;5098171;28;19930;-67
2021/09/30 04:35:36;;;;;;;;;;;;;;;;;;5101823;27;19924;-66
2021/09/30 04:38:03;;;;;;;;;;;;;;;;;;5100338;27;19931;-66
2021/09/30 04:40:29;;;;;;;;;;;;;;;;;;5102866;27;19928;-66
2021/09/30 04:42:56;;;;;;;;;;;;;;;;;;5105148;28;19923;-66
2021/09/30 04:45:23;;;;;;;;;;;;;;;;;;5107355;27;19928;-66
2021/09/30 04:47:50;;;;;;;;;;;;;;;;;;5097572;28;20030;-65
2021/09/30 04:50:17;;;;;;;;;;;;;;;;;;5102539;28;19923;-67
2021/09/30 04:52:44;;;;;;;;;;;;;;;;;;5108137;27;20459;-67
2021/09/30 04:55:11;;;;;;;;;;;;;;;;;;5102887;28;19932;-66
2021/09/30 04:57:38;;;;;;;;;;;;;;;;;;5108759;27;19924;-66
2021/09/30 05:00:05;;;;;;;;;;;;;;;;;;5100612;28;19931;-66
2021/09/30 05:02:32;;;;;;;;;;;;;;;;;;5093581;28;19924;-65
2021/09/30 05:04:59;;;;;;;;;;;;;;;;;;5099566;27;19943;-66
2021/09/30 05:07:26;;;;;;;;;;;;;;;;;;5113676;27;19930;-66
2021/09/30 05:09:53;;;;;;;;;;;;;;;;;;5109601;27;19998;-65
2021/09/30 05:12:21;;;;;;;;;;;;;;;;;;5105768;27;19928;-66
2021/09/30 05:14:49;;;;;;;;;;;;;;;;;;5104126;27;19976;-66
2021/09/30 05:17:16;;;;;;;;;;;;;;;;;;5106288;27;19924;-65
2021/09/30 05:19:43;;;;;;;;;;;;;;;;;;5109052;27;19928;-66
2021/09/30 05:22:10;;;;;;;;;;;;;;;;;;5106619;27;19928;-65
2021/09/30 05:24:37;;;;;;;;;;;;;;;;;;5104217;27;19924;-66
2021/09/30 05:27:04;;;;;;;;;;;;;;;;;;5103250;28;19923;-66
2021/09/30 05:29:31;;;;;;;;;;;;;;;;;;5105207;27;19924;-66
2021/09/30 05:31:58;;;;;;;;;;;;;;;;;;5111451;27;19953;-65
2021/09/30 05:34:25;;;;;;;;;;;;;;;;;;5110410;27;19924;-67
2021/09/30 05:36:52;;;;;;;;;;;;;;;;;;5107646;27;20030;-65
2021/09/30 05:39:18;;;;;;;;;;;;;;;;;;5108659;27;19930;-66
2021/09/30 05:41:48;;;;;;;;;;;;;;;;;;5108406;28;19923;-67
2021/09/30 05:44:21;;;;;;;;;;;;;;;;;;5103844;27;19924;-67
2021/09/30 05:46:53;;;;;;;;;;;;;;;;;;5108566;27;20343;-66
2021/09/30 05:49:20;;;;;;;;;;;;;;;;;;5101948;27;19928;-66
2021/09/30 05:51:47;;;;;;;;;;;;;;;;;;5097803;28;20388;-66
2021/09/30 05:54:13;;;;;;;;;;;;;;;;;;5109317;27;19931;-66
2021/09/30 05:56:40;;;;;;;;;;;;;;;;;;5112284;27;19930;-65
2021/09/30 05:59:08;;;;;;;;;;;;;;;;;;5107690;28;20415;-65
2021/09/30 06:12:52;;;;;;;;;;;;;;;;;;5114232;27;19923;-66
2021/09/30 06:15:26;;;;;;;;;;;;;;;;;;5108897;27;19924;-65
2021/09/30 06:17:55;;;;;;;;;;;;;;;;;;5100565;28;19924;-66
2021/09/30 06:20:22;;;;;;;;;;;;;;;;;;5106357;27;19980;-66
2021/09/30 06:22:49;;;;;;;;;;;;;;;;;;5102906;27;19932;-66
2021/09/30 06:25:16;;;;;;;;;;;;;;;;;;5105180;27;19924;-66
2021/09/30 06:27:43;;;;;;;;;;;;;;;;;;5103269;27;20033;-67
2021/09/30 06:30:10;;;;;;;;;;;;;;;;;;5107413;27;20041;-64
2021/09/30 06:32:37;;;;;;;;;;;;;;;;;;5112217;27;20027;-67
2021/09/30 06:35:06;;;;;;;;;;;16.80;99.90;;;;;;5104899;28;19923;-67
2021/09/30 06:37:32;;;;;;;;;;;18.10;99.90;;;;;;5110741;27;20359;-65
2021/09/30 06:39:59;;;;;;;;;;;18.70;99.90;;;;;;5100425;27;19927;-64
2021/09/30 06:42:26;;;;;;;;;;;;;;;;;;5106361;27;19924;-64
2021/09/30 06:44:53;;;;;;;;;;;;;;;;;;5098801;28;20259;-64
2021/09/30 06:47:20;;;;;;;;;;;;;;;;;;5103207;28;20007;-70
2021/09/30 06:49:47;;;;;;;;;;;;;;;;;;5104016;27;19931;-64
2021/09/30 06:52:14;;;;;;;;;;;;;;;;;;5104455;28;19923;-63
2021/09/30 06:54:41;;;;;;;;;;;;;;;;;;5109276;28;19931;-64
2021/09/30 06:57:08;;;;;;;;;;;;;;;;;;5116122;27;20257;-64
2021/09/30 06:59:35;;;;;;;;;;;;;;;;;;5103564;28;19924;-64
2021/09/30 07:02:06;;;;;;;;;;;;;;;;;;5101539;28;20402;-64
2021/09/30 07:04:33;;;;;;;;;;;;;;;;;;5089516;28;19947;-63
2021/09/30 07:07:00;;;;;;;;;;;;;;;;;;5090493;28;19943;-65
2021/09/30 07:09:27;;;;;;;;;;;;;;;;;;5103509;28;19924;-65
2021/09/30 07:11:54;;;;;;;;;;;;;;;;;;5097022;28;19927;-64
2021/09/30 07:14:21;;;;;;;;;;;;;;;;;;5100913;28;19924;-64
2021/09/30 07:16:48;;;;;;;;;;;;;;;;;;5102441;28;19924;-64
2021/09/30 07:19:15;;;;;;;;;;;;;;;;;;5107696;28;19931;-64
2021/09/30 07:21:42;;;;;;;;;;;;;;;;;;5112715;28;19932;-64
2021/09/30 07:24:09;;;;;;;;;;;;;;;;;;5105215;28;19935;-64
2021/09/30 07:26:36;;;;;;;;;;;;;;;;;;5111209;28;19931;-64
2021/09/30 07:29:03;;;;;;;;;;;;;;;;;;5112125;28;19923;-65
2021/09/30 07:31:30;;;;;;;;;;;;;;;;;;5118680;27;19949;-64
2021/09/30 07:33:57;;;;;;;;;;;;;;;;;;5108126;27;19932;-65
2021/09/30 07:36:24;;;;;;;;;;;;;;;;;;5101533;27;20368;-64
2021/09/30 07:38:51;;;;;;;;;;;;;;;;;;5110367;27;20298;-64
2021/09/30 07:41:18;;;;;;;;;;;;;;;;;;5114443;27;19924;-64
2021/09/30 07:43:45;;;;;;;;;;;;;;;;;;5106124;27;20023;-64
2021/09/30 07:46:12;;;;;;;;;;;;;;;;;;5091700;27;20010;-65
2021/09/30 07:48:39;;;;;;;;;;;;;;;;;;5098516;27;19935;-64
2021/09/30 07:51:06;;;;;;;;;;;;;;;;;;5093443;28;19924;-64
2021/09/30 07:53:33;;;;;;;;;;;;;;;;;;5100836;28;20418;-64
2021/09/30 07:56:00;;;;;;;;;;;;;;;;;;5108280;27;19923;-64
2021/09/30 07:58:27;;;;;;;;;;;;;;;;;;5121948;27;20383;-64
2021/09/30 08:00:54;;;;;;;;;;;;;;;;;;5112614;27;19924;-64
2021/09/30 08:03:21;;;;;;;;;;;;;;;;;;5114045;27;19924;-64
2021/09/30 08:05:48;;;;;;;;;;;;;;;;;;5104218;27;20368;-64
2021/09/30 08:08:15;;;;;;;;;;;;;;;;;;5107072;27;20018;-65
2021/09/30 08:10:42;;;;;;;;;;;;;;;;;;5108674;27;19930;-65
2021/09/30 08:13:10;;;;;;;;;;;;;;;;;;5107558;27;19932;-65
2021/09/30 08:15:37;;;;;;;;;;;;;;;;;;5100850;27;20477;-65
2021/09/30 08:18:06;;;;;;;;;;;;;;;;;;5114168;27;20399;-65
2021/09/30 08:20:34;;;;;;;;;;;;;;;;;;5100692;27;19955;-64
2021/09/30 08:23:01;;;;;;;;;;;;;;;;;;5103551;27;20345;-65
2021/09/30 08:25:28;;;;;;;;;;;;;;;;;;5103523;27;19935;-65
2021/09/30 08:27:55;;;;;;;;;;;;;;;;;;5103822;27;20015;-66
2021/09/30 08:30:22;;;;;;;;;;;;;;;;;;5104179;27;19923;-65
2021/09/30 08:32:49;;;;;;;;;;;;;;;;;;5107326;28;19932;-65
2021/09/30 08:35:16;;;;;;;;;;;;;;;;;;5104025;28;19930;-65
2021/09/30 08:37:43;;;;;;;;;;;;;;;;;;5098575;28;20014;-66
2021/09/30 08:40:10;;;;;;;;;;;;;;;;;;5104553;27;20383;-65
2021/09/30 08:42:37;;;;;;;;;;;;;;;;;;5101764;28;19923;-66
2021/09/30 08:45:04;;;;;;;;;;;;;;;;;;5104132;28;19923;-66
2021/09/30 08:47:31;;;;;;;;;;;;;;;;;;5101346;28;19924;-66
2021/09/30 08:49:58;;;;;;;;;;;;;;;;;;5097971;28;19924;-66
2021/09/30 08:52:25;;;;;;;;;;;;;;;;;;5102343;28;19923;-66
2021/09/30 08:54:52;;;;;;;;;;;;;;;;;;5092633;28;20413;-66
2021/09/30 08:57:19;;;;;;;;;;;;;;;;;;5097835;27;19927;-66
2021/09/30 08:59:46;;;;;;;;;;;;;;;;;;5105086;28;19923;-66
2021/09/30 09:02:14;;;;;;;;;;;;;;;;;;5100395;27;19939;-66
2021/09/30 09:04:41;;;;;;;;;;;;;;;;;;5101395;28;19924;-66
2021/09/30 09:07:08;;;;;;;;;;;;;;;;;;5103677;27;19931;-66
2021/09/30 09:09:35;;;;;;;;;;;;;;;;;;5101380;28;20425;-66
2021/09/30 09:12:02;;;;;;;;;;;;;;;;;;5105205;27;19934;-66
2021/09/30 09:14:29;;;;;;;;;;;;;;;;;;5100240;27;19924;-66
2021/09/30 09:16:55;;;;;;;;;;;;;;;;;;5098796;28;20390;-66
2021/09/30 09:19:22;;;;;;;;;;;;;;;;;;5095916;27;20605;-66
2021/09/30 09:21:49;;;;;;;;;;;;;;;;;;5103263;27;19931;-65
2021/09/30 09:24:16;;;;;;;;;;;;;;;;;;5097430;27;20283;-66
2021/09/30 09:26:45;;;;;;;;;;;;;;;;;;5106299;27;19931;-67
2021/09/30 09:29:12;;;;;;;;;;;;;;;;;;5100069;27;19931;-66
2021/09/30 09:31:39;;;;;;;;;;;;;;;;;;5103029;27;19969;-66
2021/09/30 09:34:06;;;;;;;;;;;;;;;;;;5102664;27;19931;-66
2021/09/30 09:36:34;;;;;;;;;;;;;;;;;;5103365;27;20225;-66
2021/09/30 09:39:01;;;;;;;;;;;;;;;;;;5100565;28;19928;-66
2021/09/30 09:41:29;;;;;;;;;;;;;;;;;;5095708;27;19971;-66
2021/09/30 09:43:56;;;;;;;;;;;;;;;;;;5120443;22;20014;-66
2021/09/30 09:46:23;;;;;;;;;;;;;;;;;;5106802;28;20048;-66
2021/09/30 09:48:50;;;;;;;;;;;;;;;;;;5109446;27;19931;-66
2021/09/30 09:51:17;;;;;;;;;;;;;;;;;;5108663;28;19930;-66
2021/09/30 09:53:44;;;;;;;;;;;;;;;;;;5096367;28;19924;-66
2021/09/30 09:56:11;;;;;;;;;;;;;;;;;;5090029;28;20753;-65
2021/09/30 09:58:38;;;;;;;;;;;;;;;;;;5088679;28;19924;-65
2021/09/30 10:01:05;;;;;;;;;;;;;;;;;;5084377;28;19930;-66
2021/09/30 10:03:32;;;;;;;;;;;;;;;;;;5088939;28;20403;-65
2021/09/30 10:05:59;;;;;;;;;;;;;;;;;;5089424;28;20310;-66
2021/09/30 10:08:26;;;;;;;;;;;;;;;;;;5083586;28;19943;-66
2021/09/30 10:10:54;;;;;;;;;;;;;;;;;;5086014;28;19924;-66
2021/09/30 10:13:21;;;;;;;;;;;;;;;;;;5086930;28;19943;-66
2021/09/30 10:15:48;;;;;;;;;;;;;;;;;;5089311;28;20459;-64
2021/09/30 10:18:15;;;;;;;;;;;;;;;;;;5085207;28;19924;-65
2021/09/30 10:20:41;;;;;;;;;;;;;;;;;;5087933;28;19928;-65
2021/09/30 10:23:09;;;;;;;;;;;;;;;;;;5088078;28;20455;-65
2021/09/30 10:25:36;;;;;;;;;;;;;;;;;;5089819;28;19931;-65
2021/09/30 10:28:03;;;;;;;;;;;;;;;;;;5088496;28;19931;-65
2021/09/30 10:30:30;;;;;;;;;;;;;;;;;;5089698;28;19977;-66
2021/09/30 10:32:57;;;;;;;;;;;;;;;;;;5087291;28;19924;-66
2021/09/30 10:35:23;;;;;;;;;;;;;;;;;;5089685;28;19935;-66
2021/09/30 10:37:50;;;;;;;;;;;;;;;;;;5085772;28;19924;-65
2021/09/30 10:40:18;;;;;;;;;;;;;;;;;;5080381;28;19932;-65
2021/09/30 10:42:47;;;;;;;;;;;;;;;;;;5089149;28;20007;-66
2021/09/30 10:45:14;;;;;;;;;;;;;;;;;;5083060;28;19931;-65
2021/09/30 10:47:41;;;;;;;;;;;;;;;;;;5088274;28;19928;-66
2021/09/30 10:50:08;;;;;;;;;;;;;;;;;;5087069;28;20299;-65
2021/09/30 10:52:36;;;;;;;;;;;;;;;;;;5089970;28;19935;-67
2021/09/30 10:55:04;;;;;;;;;;;;;;;;;;5084858;28;19941;-67
2021/09/30 10:57:31;;;;;;;;;;;;;;;;;;5090728;28;19931;-67
2021/09/30 10:59:58;;;;;;;;;;;;;;;;;;5086844;28;19931;-64
2021/09/30 11:02:25;;;;;;;;;;;;;;;;;;5087511;28;19928;-69
2021/09/30 11:04:52;;;;;;;;;;;;;;;;;;5092580;28;20395;-65
2021/09/30 11:07:19;;;;;;;;;;;;;;;;;;5091523;28;19935;-67
2021/09/30 11:09:45;;;;;;;;;;;;;;;;;;5091200;28;20375;-66
2021/09/30 11:12:12;;;;;;;;;;;;;;;;;;5094618;28;19924;-66
2021/09/30 11:14:39;;;;;;;;;;;;;;;;;;5093494;28;19924;-66
2021/09/30 11:17:07;;;;;;;;;;;;;;;;;;5093539;28;19924;-66
2021/09/30 11:19:34;;;;;;;;;;;;;;;;;;5089031;28;19928;-63
2021/09/30 11:22:02;;;;;;;;;;;;;;;;;;5095673;28;20380;-67
2021/09/30 11:24:29;;;;;;;;;;;;;;;;;;5093173;28;19928;-65
2021/09/30 11:26:56;;;;;;;;;;;;;;;;;;5095507;28;20352;-65
2021/09/30 11:29:23;;;;;;;;;;;;;;;;;;5093568;28;20569;-65
2021/09/30 11:31:50;;;;;;;;;;;;;;;;;;5094970;28;19928;-66
2021/09/30 11:34:17;;;;;;;;;;;;;;;;;;5091682;28;19924;-65
2021/09/30 11:36:44;;;;;;;;;;;;;;;;;;5096273;28;20018;-66
2021/09/30 11:39:11;;;;;;;;;;;;;;;;;;5090973;28;19939;-67
2021/09/30 11:41:38;;;;;;;;;;;;;;;;;;5093951;28;19977;-66
2021/09/30 11:44:05;;;;;;;;;;;;;;;;;;5089915;28;19928;-66
2021/09/30 11:46:32;;;;;;;;;;;;;;;;;;5093933;28;19932;-67
2021/09/30 11:48:59;;;;;;;;;;;;;;;;;;5095926;28;19970;-67
2021/09/30 11:51:26;;;;;;;;;;;;;;;;;;5096632;28;20380;-66
2021/09/30 11:53:53;;;;;;;;;;;;;;;;;;5093740;28;19928;-67
2021/09/30 11:56:20;;;;;;;;;;;;;;;;;;5095224;28;19959;-67
2021/09/30 11:58:47;;;;;;;;;;;;;;;;;;5091175;28;19928;-67
2021/09/30 12:01:14;;;;;;;;;;;;;;;;;;5088329;28;20598;-66
2021/09/30 12:03:41;;;;;;;;;;;;;;;;;;5089842;28;20281;-66
2021/09/30 12:06:12;;;;;;;;;;;;;;;;;;5092198;28;20283;-68
2021/09/30 12:08:38;;;;;;;;;;;;;;;;;;5088231;28;19946;-65
2021/09/30 12:11:06;;;;;;;;;;;;;;;;;;5090075;28;19925;-65
2021/09/30 12:13:33;;;;;;;;;;;;;;;;;;5091666;28;20010;-65
2021/09/30 12:16:00;;;;;;;;;;;;;;;;;;5088096;28;20392;-64
2021/09/30 12:18:26;;;;;;;;;;;;;;;;;;5085082;28;20295;-65
2021/09/30 12:20:54;;;;;;;;;;;;;;;;;;5088182;28;19924;-65
2021/09/30 12:23:20;;;;;;;;;;;;;;;;;;5086835;28;19924;-65
2021/09/30 12:25:47;;;;;;;;;;;;;;;;;;5089263;28;19928;-65
2021/09/30 12:28:14;;;;;;;;;;;;;;;;;;5092000;28;19931;-64
2021/09/30 12:30:42;;;;;;;;;;;;;;;;;;5090629;28;19970;-64
2021/09/30 12:33:09;;;;;;;;;;;;;;;;;;5088895;28;19950;-64
2021/09/30 12:35:36;;;;;;;;;;;;;;;;;;5090508;28;20382;-65
2021/09/30 12:38:02;;;;;;;;;;;;;;;;;;5086321;28;20047;-64
2021/09/30 12:40:29;;;;;;;;;;;;;;;;;;5086944;28;19939;-65
2021/09/30 12:42:56;;;;;;;;;;;;;;;;;;5088344;28;19924;-65
2021/09/30 12:45:23;;;;;;;;;;;;;;;;;;5085142;28;20602;-64
2021/09/30 12:47:52;;;;;;;;;;;;;;;;;;5091150;28;19947;-65
2021/09/30 12:50:19;;;;;;;;;;;;;;;;;;5088786;28;19928;-65
2021/09/30 12:52:46;;;;;;;;;;;;;;;;;;5088465;28;20399;-65
2021/09/30 12:55:13;;;;;;;;;;;;;;;;;;5087658;28;19931;-65
2021/09/30 12:57:40;;;;;;;;;;;;;;;;;;5088320;28;20275;-64
2021/09/30 13:00:07;;;;;;;;;;;;;;;;;;5087193;28;19931;-64
2021/09/30 13:02:34;;;;;;;;;;;;;;;;;;5088905;28;20299;-65
2021/09/30 13:05:01;;;;;;;;;;;;;;;;;;5086539;28;19928;-65
2021/09/30 13:07:28;;;;;;;;;;;;;;;;;;5086390;28;20023;-65
2021/09/30 13:09:55;;;;;;;;;;;;;;;;;;5087122;28;19931;-64
2021/09/30 13:12:22;;;;;;;;;;;;;;;;;;5083735;28;19950;-65
2021/09/30 13:14:49;;;;;;;;;;;;;;;;;;5087368;28;19931;-65
2021/09/30 13:17:16;;;;;;;;;;;;;;;;;;5086401;28;20399;-65
2021/09/30 13:19:43;;;;;;;;;;;;;;;;;;5087133;28;19924;-65
2021/09/30 13:22:10;;;;;;;;;;;;;;;;;;5087109;28;19932;-65
2021/09/30 13:24:37;;;;;;;;;;;;;;;;;;5087347;28;20016;-65
2021/09/30 13:27:04;;;;;;;;;;;;;;;;;;5085865;28;19971;-66
2021/09/30 13:29:31;;;;;;;;;;;;;;;;;;5089019;28;20376;-65
2021/09/30 13:31:58;;;;;;;;;;;;;;;;;;5086396;28;19924;-65
2021/09/30 13:34:24;;;;;;;;;;;;;;;;;;5087125;28;19924;-65
2021/09/30 13:36:52;;;;;;;;;;;;;;;;;;5088527;28;19939;-64
2021/09/30 13:39:19;;;;;;;;;;;;;;;;;;5086777;28;19971;-64
2021/09/30 13:41:45;;;;;;;;;;;;;;;;;;5085759;28;19947;-64
2021/09/30 13:44:12;;;;;;;;;;;;;;;;;;5085434;28;20350;-65
2021/09/30 13:46:39;;;;;;;;;;;;;;;;;;5088294;28;19924;-64
2021/09/30 13:49:06;;;;;;;;;;;;;;;;;;5088496;28;19930;-64
2021/09/30 13:51:33;;;;;;;;;;;;;;;;;;5086673;28;19932;-65
2021/09/30 13:54:00;;;;;;;;;;;;;;;;;;5088685;28;20034;-64
2021/09/30 13:56:27;;;;;;;;;;;;;;;;;;5084011;28;19931;-64
2021/09/30 13:58:54;;;;;;;;;;;;;;;;;;5085118;28;19935;-64
2021/09/30 14:01:21;;;;;;;;;;;;;;;;;;5085355;28;19994;-64
2021/09/30 14:03:48;;;;;;;;;;;;;;;;;;5083563;28;21496;-65
2021/09/30 14:06:16;;;;;;;;;;;;;;;;;;5089661;28;19924;-65
2021/09/30 14:08:43;;;;;;;;;;;;;;;;;;5085652;28;20399;-64
2021/09/30 14:11:10;;;;;;;;;;;;;;;;;;5082042;28;19930;-66
2021/09/30 14:13:37;;;;;;;;;;;;;;;;;;5084961;28;19924;-64
2021/09/30 14:16:04;;;;;;;;;;;;;;;;;;5084465;28;19928;-66
2021/09/30 14:18:31;;;;;;;;;;;;;;;;;;5086427;28;20039;-64
2021/09/30 14:20:58;;;;;;;;;;;;;;;;;;5087336;28;20027;-65
2021/09/30 14:23:26;;;;;;;;;;;;;;;;;;5090025;28;20002;-65
2021/09/30 14:25:53;;;;;;;;;;;;;;;;;;5088185;28;19924;-64
2021/09/30 14:28:20;;;;;;;;;;;;;;;;;;5088769;28;20364;-63
2021/09/30 14:30:47;;;;;;;;;;;;;;;;;;5088094;28;19928;-64
2021/09/30 14:33:14;;;;;;;;;;;;;;;;;;5087689;28;19928;-62
2021/09/30 14:35:41;;;;;;;;;;;;;;;;;;5088764;28;20410;-63
2021/09/30 14:38:07;;;;;;;;;;;;;;;;;;5085878;28;19931;-64
2021/09/30 14:40:34;;;;;;;;;;;;;;;;;;5087353;28;19930;-63
2021/09/30 14:43:01;;;;;;;;;;;;;;;;;;5088175;28;19924;-64
2021/09/30 14:45:28;;;;;;;;;;;;;;;;;;5088591;28;19931;-64
2021/09/30 14:47:55;;;;;;;;;;;;;;;;;;5087113;28;20383;-64
2021/09/30 14:50:22;;;;;;;;;;;;;;;;;;5085993;28;19924;-64
2021/09/30 14:52:49;;;;;;;;;;;;;;;;;;5088793;28;19924;-65
2021/09/30 14:55:16;;;;;;;;;;;;;;;;;;5087710;28;20351;-64
2021/09/30 14:57:45;;;;;;;;;;;;;;;;;;5085330;28;20311;-65
2021/09/30 15:00:14;;;;;;;;;;;;;;;;;;5087087;28;19939;-64
2021/09/30 15:02:41;;;;;;;;;;;;;;;;;;5084787;28;19962;-64
2021/09/30 15:05:08;;;;;;;;;;;;;;;;;;5087461;28;19982;-65
2021/09/30 15:07:35;;;;;;;;;;;;;;;;;;5080659;28;19924;-64
2021/09/30 15:10:02;;;;;;;;;;;;;;;;;;5085827;28;19951;-64
2021/09/30 15:12:29;;;;;;;;;;;;;;;;;;5087724;28;19935;-64
2021/09/30 15:14:56;;;;;;;;;;;;;;;;;;5086516;28;20298;-64
2021/09/30 15:17:26;;;;;;;;;;;;;;;;;;5086449;28;19924;-63
2021/09/30 15:20:00;;;;;;;;;;;;;;;;;;5086427;28;19932;-63
2021/09/30 15:22:28;;;;;;;;;;;;;;;;;;5082423;28;19931;-65
2021/09/30 15:24:55;;;;;;;;;;;;;;;;;;5086286;28;20013;-64
2021/09/30 15:27:23;;;;;;;;;;;;;;;;;;5087679;28;19924;-65
2021/09/30 15:29:50;;;;;;;;;;;;;;;;;;5086952;28;19925;-65
2021/09/30 15:32:17;;;;;;;;;;;;;;;;;;5088132;28;19928;-66
2021/09/30 15:34:44;;;;;;;;;;;;;;;;;;5085782;28;20014;-67
2021/09/30 15:37:11;;;;;;;;;;;;;;;;;;5084404;28;19932;-64
2021/09/30 15:39:38;;;;;;;;;;;;;;;;;;5085161;28;19928;-63
2021/09/30 15:44:38;;;;;;;;;;;;;;;;;;5085509;28;20264;-64
2021/09/30 15:47:05;;;;;;;;;;;;;;;;;;5083201;28;19928;-63
2021/09/30 15:49:32;;;;;;;;;;;;;;;;;;5083201;28;19970;-66
2021/09/30 15:51:59;;;;;;;;;;;;;;;;;;5087348;28;19925;-64
2021/09/30 15:54:26;;;;;;;;;;;;;;;;;;5067157;28;19924;-65
2021/09/30 15:56:53;;;;;;;;;;;;;;;;;;5069758;28;19928;-64
2021/09/30 15:59:20;;;;;;;;;;;;;;;;;;5069623;28;19924;-65
2021/09/30 16:01:47;;;;;;;;;;;;;;;;;;5071793;28;19929;-63
2021/09/30 16:04:14;;;;;;;;;;;;;;;;;;5070438;28;19928;-65
2021/09/30 16:06:41;;;;;;;;;;;;;;;;;;5070940;28;19982;-65
2021/09/30 16:09:08;;;;;;;;;;;;;;;;;;5068992;28;19924;-66
2021/09/30 16:11:35;;;;;;;;;;;;;;;;;;5068504;28;20023;-66
2021/09/30 16:14:02;;;;;;;;;;;;;;;;;;5070936;28;20299;-65
2021/09/30 16:16:29;;;;;;;;;;;;;;;;;;5070736;28;19947;-66
2021/09/30 16:18:56;;;;;;;;;;;;;;;;;;5069416;28;20350;-65
2021/09/30 16:21:23;;;;;;;;;;;;;;;;;;5069937;28;19977;-66
2021/09/30 16:23:50;;;;;;;;;;;;;;;;;;5069565;28;20372;-66
2021/09/30 16:26:20;;;;;;;;;;;;;;;;;;5067691;28;19939;-67
2021/09/30 16:28:46;;;;;;;;;;;;;;;;;;5070214;28;19924;-65
2021/09/30 16:31:14;;;;;;;;;;;;;;;;;;5070624;28;19928;-67
2021/09/30 16:33:41;;;;;;;;;;;;;;;;;;5070727;28;19955;-67
2021/09/30 16:36:08;;;;;;;;;;;;;;;;;;5068561;28;20387;-66
2021/09/30 16:38:36;;;;;;;;;;;;;;;;;;5069615;28;20194;-66
2021/09/30 16:41:03;;;;;;;;;;;;;;;;;;5066888;28;20002;-66
2021/09/30 16:43:30;;;;;;;;;;;;;;;;;;5069195;28;19975;-66
2021/09/30 16:45:57;;;;;;;;;;;;;;;;;;5068652;28;20376;-66
2021/09/30 16:48:24;;;;;;;;;;;;;;;;;;5069202;28;19928;-67
2021/09/30 16:50:52;;;;;;;;;;;;;;;;;;5069316;28;19925;-66
2021/09/30 16:53:21;;;;;;;;;;;;;;;;;;5069042;28;19978;-65
2021/09/30 16:55:48;;;;;;;;;;;;;;;;;;5071258;28;19952;-67
2021/09/30 16:58:15;;;;;;;;;;;;;;;;;;5066638;28;19928;-65
2021/09/30 17:00:42;;;;;;;;;;;;;;;;;;5067820;28;21631;-65
2021/09/30 17:03:09;;;;;;;;;;;;;;;;;;5067076;28;19956;-64
2021/09/30 17:05:36;;;;;;;;;;;;;;;;;;5069883;28;20028;-64
2021/09/30 17:08:03;;;;;;;;;;;;;;;;;;5067173;28;19929;-64
2021/09/30 17:10:30;;;;;;;;;;;;;;;;;;5067009;28;19976;-66
2021/09/30 17:12:57;;;;;;;;;;;;;;;;;;5068949;28;19925;-66
2021/09/30 17:15:24;;;;;;;;;;;;;;;;;;5066786;28;19935;-65
2021/09/30 17:17:51;;;;;;;;;;;;;;;;;;5067915;28;19924;-67
2021/09/30 17:20:18;;;;;;;;;;;;;;;;;;5067279;28;19925;-65
2021/09/30 17:22:45;;;;;;;;;;;;;;;;;;5066619;28;21911;-64
2021/09/30 17:25:12;;;;;;;;;;;;;;;;;;5065674;28;19999;-64
2021/09/30 17:27:39;;;;;;;;;;;;;;;;;;5069258;28;20274;-65
2021/09/30 17:30:06;;;;;;;;;;;;;;;;;;5069615;28;19924;-64
2021/09/30 17:32:33;;;;;;;;;;;;;;;;;;5069005;28;19984;-64
2021/09/30 17:35:00;;;;;;;;;;;;;;;;;;5065258;28;19932;-64
2021/09/30 17:37:27;;;;;;;;;;;;;;;;;;5068284;28;19932;-64
2021/09/30 17:39:54;;;;;;;;;;;;;;;;;;5067144;28;20295;-64
2021/09/30 17:42:21;;;;;;;;;;;;;;;;;;5066494;28;19924;-65
2021/09/30 17:44:48;;;;;;;;;;;;;;;;;;5068505;28;20019;-65
2021/09/30 17:47:15;;;;;;;;;;;;;;;;;;5068046;28;19931;-65
2021/09/30 17:49:42;;;;;;;;;;;;;;;;;;5068140;28;19963;-65
2021/09/30 17:52:09;;;;;;;;;;;;;;;;;;5065564;28;20020;-66
2021/09/30 17:54:36;;;;;;;;;;;;;;;;;;5066362;28;19942;-66
2021/09/30 17:57:03;;;;;;;;;;;;;;;;;;5067570;28;20264;-66
2021/09/30 17:59:30;;;;;;;;;;;;;;;;;;5066157;28;19931;-66
2021/09/30 18:01:57;;;;;;;;;;;;;;;;;;5067216;28;19975;-66
2021/09/30 18:04:24;;;;;;;;;;;;;;;;;;5067106;28;19974;-65
2021/09/30 18:06:53;;;;;;;;;;;;;;;;;;5067695;28;20439;-66
2021/09/30 18:09:20;;;;;;;;;;;;;;;;;;5065551;28;19925;-67
2021/09/30 18:11:47;;;;;;;;;;;;;;;;;;5066380;28;19999;-66
2021/09/30 18:14:13;;;;;;;;;;;;;;;;;;5065709;28;19933;-66
2021/09/30 18:16:41;;;;;;;;;;;;;;;;;;5067306;28;19999;-67
2021/09/30 18:19:10;;;;;;;;;;;;;;;;;;5067335;28;19924;-64
2021/09/30 18:21:40;;;;;;;;;;;;;;;;;;5065122;28;19983;-65
2021/09/30 18:24:18;;;;;;;;;;;;;;;;;;5065718;28;19955;-66
2021/09/30 18:26:44;;;;;;;;;;;;;;;;;;5067384;28;19925;-65
2021/09/30 18:29:11;;;;;;;;;;;;;;;;;;5069056;28;20475;-64
2021/09/30 18:31:39;;;;;;;;;;;;;;;;;;5067165;28;19924;-65
2021/09/30 18:34:07;;;;;;;;;;;;;;;;;;5065384;28;20192;-64
2021/09/30 18:36:34;;;;;;;;;;;;;;;;;;5066046;28;19935;-66
2021/09/30 18:39:02;;;;;;;;;;;;;;;;;;5065916;28;20289;-66
2021/09/30 18:41:29;;;;;;;;;;;;;;;;;;5064825;28;20304;-66
2021/09/30 18:43:56;;;;;;;;;;;;;;;;;;5063054;28;19940;-66
2021/09/30 18:46:23;;;;;;;;;;;;;;;;;;5064731;28;19928;-66
2021/09/30 18:48:50;;;;;;;;;;;;;;;;;;5069071;28;19925;-65
2021/09/30 18:51:17;;;;;;;;;;;;;;;;;;5063285;28;19929;-65
2021/09/30 18:53:44;;;;;;;;;;;;;;;;;;5064087;28;19925;-65
2021/09/30 18:56:11;;;;;;;;;;;;;;;;;;5066256;28;19943;-66
2021/09/30 18:58:38;;;;;;;;;;;;;;;;;;5066041;28;19964;-64
2021/09/30 19:01:06;;;;;;;;;;;;;;;;;;5066614;28;19924;-65
2021/09/30 19:03:33;;;;;;;;;;;;;;;;;;5066548;28;19929;-66
2021/09/30 19:06:01;;;;;;;;;;;;;;;;;;5061639;28;20534;-66
2021/09/30 19:08:28;;;;;;;;;;;;;;;;;;5065674;28;19928;-66
2021/09/30 19:10:55;;;;;;;;;;;;;;;;;;5064770;28;20119;-66
2021/09/30 19:13:22;;;;;;;;;;;;;;;;;;5069600;28;19924;-63
2021/09/30 19:15:49;;;;;;;;;;;;;;;;;;5066728;28;19928;-65
2021/09/30 19:18:20;;;;;;;;;;;;;;;;;;5067232;28;20399;-68
2021/09/30 19:20:48;;;;;;;;;;;;;;;;;;5063424;28;19959;-68
2021/09/30 19:23:15;;;;;;;;;;;;;;;;;;5065642;28;20023;-68